Time;durP1;ratioP1;P1;durP2;ratioP2;P2;SDS_P1;SDS_P2;PMS_P1;PMS_P2;Temp;Humidity;BMP_temperature;BMP_pressure;BME280_temperature;BME280_humidity;BME280_pressure;Samples;Min_cycle;Max_cycle;Signal;HPM_P1;HPM_P2
2023/08/13 00:00:55;;;;;;;10.38;5.93;;;24.30;67.00;;;;;;6127842;28;80643;-67
2023/08/13 00:03:56;;;;;;;10.43;5.45;;;24.30;66.80;;;;;;6120158;28;80949;-72
2023/08/13 00:06:56;;;;;;;7.18;5.38;;;24.30;66.90;;;;;;6107953;28;80536;-68
2023/08/13 00:09:57;;;;;;;10.00;5.38;;;24.30;67.10;;;;;;6123373;28;80323;-69
2023/08/13 00:12:58;;;;;;;8.90;5.53;;;24.30;67.00;;;;;;6113500;28;81007;-69
2023/08/13 00:15:58;;;;;;;9.63;5.22;;;24.20;67.00;;;;;;6122522;28;81167;-70
2023/08/13 00:18:59;;;;;;;10.30;5.40;;;24.20;67.30;;;;;;6116382;28;81394;-71
2023/08/13 00:21:59;;;;;;;9.88;5.35;;;24.20;67.20;;;;;;6137659;28;80810;-70
2023/08/13 00:25:00;;;;;;;7.78;5.03;;;24.20;67.20;;;;;;6114623;28;81568;-66
2023/08/13 00:28:00;;;;;;;8.55;5.30;;;24.20;67.20;;;;;;6121275;28;82443;-70
2023/08/13 00:31:01;;;;;;;10.00;5.53;;;24.30;67.20;;;;;;6140353;28;83327;-70
2023/08/13 00:34:01;;;;;;;11.02;5.70;;;24.30;67.10;;;;;;6151841;28;80575;-69
2023/08/13 00:37:02;;;;;;;7.70;5.38;;;24.30;67.00;;;;;;6143506;28;81050;-69
2023/08/13 00:40:04;;;;;;;9.38;5.50;;;24.30;67.10;;;;;;6127906;28;81073;-68
2023/08/13 00:43:04;;;;;;;8.38;5.75;;;24.30;67.10;;;;;;6116025;28;80134;-52
2023/08/13 00:46:05;;;;;;;8.88;5.30;;;24.20;67.10;;;;;;6128761;28;80614;-55
2023/08/13 00:49:05;;;;;;;8.82;5.72;;;24.20;67.40;;;;;;6123853;28;80447;-54
2023/08/13 00:52:06;;;;;;;10.18;5.60;;;24.20;67.60;;;;;;6153536;28;84880;-56
2023/08/13 00:55:08;;;;;;;7.63;5.55;;;24.20;67.20;;;;;;6127561;28;81459;-56
2023/08/13 00:58:09;;;;;;;8.35;5.07;;;24.10;67.30;;;;;;6128486;28;81729;-54
2023/08/13 01:01:09;;;;;;;8.38;5.25;;;24.10;67.50;;;;;;6141780;28;81575;-57
2023/08/13 01:04:10;;;;;;;9.65;5.82;;;24.20;67.50;;;;;;6141891;28;80499;-55
2023/08/13 01:07:11;;;;;;;8.10;5.47;;;24.20;67.60;;;;;;6126813;28;83310;-55
2023/08/13 01:10:13;;;;;;;6.45;5.18;;;24.10;67.60;;;;;;6130618;28;80931;-57
2023/08/13 01:13:14;;;;;;;10.93;6.05;;;24.20;67.40;;;;;;6134333;28;80684;-53
2023/08/13 01:16:14;;;;;;;9.35;5.50;;;24.10;67.30;;;;;;6134939;28;80856;-58
2023/08/13 01:19:15;;;;;;;7.70;5.13;;;24.20;67.30;;;;;;6129195;28;80473;-63
2023/08/13 01:22:15;;;;;;;8.40;5.38;;;24.20;67.10;;;;;;6138436;28;81040;-62
2023/08/13 01:25:16;;;;;;;8.18;5.15;;;24.20;67.20;;;;;;6127497;28;83173;-62
2023/08/13 01:28:16;;;;;;;10.88;5.93;;;24.20;67.00;;;;;;6129000;28;80448;-62
2023/08/13 01:31:18;;;;;;;10.95;5.25;;;24.20;66.90;;;;;;6129362;28;80253;-62
2023/08/13 01:34:18;;;;;;;6.47;4.70;;;24.10;66.90;;;;;;6150623;28;81723;-61
2023/08/13 01:37:19;;;;;;;7.32;5.10;;;24.10;66.90;;;;;;6127222;28;80686;-62
2023/08/13 01:40:19;;;;;;;10.32;5.15;;;23.90;67.30;;;;;;6127083;28;83135;-62
2023/08/13 01:43:20;;;;;;;8.63;5.10;;;23.90;67.60;;;;;;6142404;28;81775;-61
2023/08/13 01:46:20;;;;;;;9.15;5.57;;;23.90;67.50;;;;;;6129284;28;87863;-61
2023/08/13 01:49:21;;;;;;;6.95;4.72;;;23.90;67.60;;;;;;6128162;28;82314;-62
2023/08/13 01:52:22;;;;;;;7.75;4.97;;;23.80;67.60;;;;;;6126917;28;82711;-60
2023/08/13 01:55:22;;;;;;;8.20;5.43;;;23.80;67.90;;;;;;6119626;28;82079;-61
2023/08/13 01:58:23;;;;;;;7.38;5.00;;;23.80;67.90;;;;;;6109634;28;81285;-62
2023/08/13 02:01:23;;;;;;;5.45;4.35;;;23.80;67.80;;;;;;6125011;28;83488;-61
2023/08/13 02:04:24;;;;;;;9.55;4.70;;;23.90;67.70;;;;;;6117058;28;80513;-62
2023/08/13 02:07:25;;;;;;;9.18;5.43;;;23.90;67.60;;;;;;6112613;28;82226;-62
2023/08/13 02:10:25;;;;;;;7.18;4.65;;;23.90;67.60;;;;;;6104810;28;80633;-63
2023/08/13 02:13:26;;;;;;;5.85;4.60;;;23.90;67.60;;;;;;6116757;28;83566;-62
2023/08/13 02:16:26;;;;;;;6.63;4.47;;;23.90;67.70;;;;;;6124425;28;82612;-62
2023/08/13 02:19:27;;;;;;;8.65;5.10;;;24.00;67.80;;;;;;6123632;28;83855;-61
2023/08/13 02:22:27;;;;;;;6.40;4.93;;;23.90;67.80;;;;;;6127812;28;80744;-62
2023/08/13 02:25:28;;;;;;;6.53;4.57;;;24.00;67.60;;;;;;6125308;28;83624;-62
2023/08/13 02:28:31;;;;;;;7.32;4.93;;;24.00;67.40;;;;;;6108139;28;82699;-62
2023/08/13 02:31:32;;;;;;;6.90;4.75;;;24.00;67.60;;;;;;6128064;28;82037;-62
2023/08/13 02:34:33;;;;;;;5.80;4.43;;;24.00;67.70;;;;;;6126412;28;80651;-55
2023/08/13 02:37:34;;;;;;;6.55;4.78;;;24.10;67.70;;;;;;6131563;28;80874;-57
2023/08/13 02:40:34;;;;;;;7.75;5.40;;;24.00;67.70;;;;;;6132347;28;80805;-54
2023/08/13 02:43:36;;;;;;;8.15;4.75;;;24.00;67.90;;;;;;6133295;28;81462;-56
2023/08/13 02:46:37;;;;;;;11.75;5.20;;;24.00;68.00;;;;;;6117325;28;80500;-57
2023/08/13 02:49:38;;;;;;;9.50;6.03;;;23.90;67.90;;;;;;6107374;28;81049;-54
2023/08/13 02:52:38;;;;;;;7.15;4.47;;;23.90;68.20;;;;;;6120759;28;80527;-56
2023/08/13 02:55:39;;;;;;;6.25;4.30;;;23.80;68.10;;;;;;6103619;28;81944;-54
2023/08/13 02:58:40;;;;;;;7.75;4.80;;;23.70;68.30;;;;;;6114905;28;83753;-56
2023/08/13 03:01:41;;;;;;;10.35;5.60;;;23.70;68.30;;;;;;6107948;28;80577;-56
2023/08/13 03:04:41;;;;;;;5.60;3.92;;;23.70;68.20;;;;;;6114213;28;82056;-55
2023/08/13 03:07:42;;;;;;;6.88;4.65;;;23.70;68.20;;;;;;6108405;28;80873;-56
2023/08/13 03:10:42;;;;;;;8.43;5.43;;;23.70;68.40;;;;;;6116201;28;81880;-70
2023/08/13 03:13:43;;;;;;;8.50;4.68;;;23.70;68.40;;;;;;6115486;28;83003;-68
2023/08/13 03:16:44;;;;;;;9.25;4.70;;;23.70;68.30;;;;;;6105313;28;81725;-70
2023/08/13 03:19:45;;;;;;;7.70;4.85;;;23.80;68.50;;;;;;6123132;28;80778;-67
2023/08/13 03:22:45;;;;;;;8.07;4.63;;;23.80;68.20;;;;;;6126442;28;83273;-66
2023/08/13 03:25:46;;;;;;;5.85;4.38;;;23.80;68.10;;;;;;6125499;28;82179;-68
2023/08/13 03:28:47;;;;;;;8.75;4.45;;;23.70;68.10;;;;;;6139479;28;81118;-69
2023/08/13 03:31:51;;;;;;;5.57;4.03;;;23.70;67.90;;;;;;6131246;28;83459;-70
2023/08/13 03:34:55;;;;;;;8.75;5.13;;;23.70;67.80;;;;;;6144854;28;82074;-70
2023/08/13 03:37:56;;;;;;;8.32;4.30;;;23.80;67.90;;;;;;6130407;28;83358;-68
2023/08/13 03:40:56;;;;;;;6.25;4.28;;;23.80;67.70;;;;;;6130290;28;80623;-68
2023/08/13 03:43:57;;;;;;;5.90;3.85;;;23.90;67.70;;;;;;6118765;28;80059;-67
2023/08/13 03:46:57;;;;;;;4.72;4.05;;;23.90;67.50;;;;;;6130182;28;81925;-57
2023/08/13 03:49:58;;;;;;;5.18;4.00;;;23.90;67.50;;;;;;6129056;28;83122;-53
2023/08/13 03:52:58;;;;;;;7.43;4.82;;;23.90;67.50;;;;;;6128046;28;83997;-54
2023/08/13 03:55:59;;;;;;;6.05;4.18;;;23.90;67.50;;;;;;6108671;28;83376;-55
2023/08/13 03:59:00;;;;;;;7.68;4.40;;;23.90;67.70;;;;;;6116545;28;81945;-56
2023/08/13 04:02:02;;;;;;;5.13;4.50;;;24.00;67.60;;;;;;6129868;28;83576;-53
2023/08/13 04:05:02;;;;;;;5.32;4.07;;;24.00;67.80;;;;;;6129458;28;83599;-55
2023/08/13 04:08:03;;;;;;;6.80;4.70;;;24.00;67.70;;;;;;6143305;28;81733;-55
2023/08/13 04:11:04;;;;;;;10.38;4.43;;;24.00;67.70;;;;;;6128193;28;82544;-56
2023/08/13 04:14:05;;;;;;;5.18;4.35;;;24.00;67.80;;;;;;6128554;28;83264;-56
2023/08/13 04:17:05;;;;;;;8.05;4.43;;;23.90;67.90;;;;;;6127185;28;81862;-56
2023/08/13 04:20:07;;;;;;;7.65;4.95;;;23.80;68.20;;;;;;6115187;28;82617;-57
2023/08/13 04:23:08;;;;;;;5.88;4.25;;;23.80;68.30;;;;;;6109398;28;83608;-51
2023/08/13 04:26:10;;;;;;;6.35;4.18;;;23.60;68.20;;;;;;6133333;28;82311;-50
2023/08/13 04:29:10;;;;;;;4.97;4.22;;;23.60;68.50;;;;;;6111812;28;80242;-51
2023/08/13 04:32:13;;;;;;;7.22;4.35;;;23.60;68.30;;;;;;6120131;28;82252;-49
2023/08/13 04:35:14;;;;;;;5.20;3.95;;;23.70;68.20;;;;;;6138756;28;82184;-52
2023/08/13 04:38:15;;;;;;;5.45;3.88;;;23.70;68.20;;;;;;6111342;28;83510;-50
2023/08/13 04:41:18;;;;;;;4.60;3.88;;;23.70;68.10;;;;;;6130494;28;80726;-53
2023/08/13 04:44:22;;;;;;;5.45;4.40;;;23.70;68.10;;;;;;6135526;28;83380;-53
2023/08/13 04:47:22;;;;;;;8.02;4.60;;;23.70;68.20;;;;;;6139171;28;83048;-52
2023/08/13 04:50:23;;;;;;;5.03;4.22;;;23.70;68.00;;;;;;6138371;28;80221;-51
2023/08/13 04:53:24;;;;;;;5.78;3.83;;;23.70;68.20;;;;;;6127605;28;80607;-52
2023/08/13 04:56:24;;;;;;;5.68;4.22;;;23.70;68.20;;;;;;6112196;28;83984;-51
2023/08/13 04:59:25;;;;;;;4.13;3.70;;;23.70;68.10;;;;;;6107595;28;83993;-57
2023/08/13 05:02:26;;;;;;;9.82;3.95;;;23.70;68.00;;;;;;6113833;28;81060;-56
2023/08/13 05:05:27;;;;;;;4.85;3.88;;;23.70;68.10;;;;;;6123934;28;82135;-55
2023/08/13 05:08:27;;;;;;;4.20;3.45;;;23.70;68.20;;;;;;6111565;28;80327;-53
2023/08/13 05:11:29;;;;;;;4.65;3.88;;;23.70;68.00;;;;;;6109026;28;83115;-54
2023/08/13 05:14:30;;;;;;;4.20;3.38;;;23.80;68.10;;;;;;6109339;28;83178;-55
2023/08/13 05:17:31;;;;;;;4.93;3.72;;;23.80;67.90;;;;;;6142328;28;83403;-51
2023/08/13 05:20:32;;;;;;;3.75;3.40;;;23.80;67.90;;;;;;6122174;28;81832;-54
2023/08/13 05:23:32;;;;;;;6.15;3.65;;;23.80;68.10;;;;;;6124268;28;80768;-50
2023/08/13 05:26:33;;;;;;;4.22;3.45;;;23.90;68.10;;;;;;6121999;28;80754;-54
2023/08/13 05:29:34;;;;;;;4.75;3.90;;;23.80;68.20;;;;;;6152346;28;83142;-53
2023/08/13 05:32:35;;;;;;;6.93;4.15;;;23.90;68.10;;;;;;6137302;28;85819;-52
2023/08/13 05:35:36;;;;;;;6.65;3.83;;;23.90;68.10;;;;;;6145119;28;83054;-58
2023/08/13 05:38:36;;;;;;;11.77;3.83;;;24.00;68.60;;;;;;6126332;28;80668;-57
2023/08/13 05:41:39;;;;;;;8.68;3.42;;;24.00;68.40;;;;;;6136113;28;85972;-59
2023/08/13 05:44:40;;;;;;;7.75;3.58;;;24.00;68.30;;;;;;6142116;28;83814;-56
2023/08/13 05:47:41;;;;;;;4.45;3.35;;;24.00;68.10;;;;;;6126063;28;83065;-56
2023/08/13 05:50:42;;;;;;;4.25;3.83;;;24.00;68.20;;;;;;6111921;28;81058;-54
2023/08/13 05:53:42;;;;;;;6.20;3.97;;;24.00;68.30;;;;;;6114278;28;82818;-56
2023/08/13 05:56:43;;;;;;;5.20;3.60;;;24.00;68.10;;;;;;6110830;28;80547;-53
2023/08/13 05:59:43;;;;;;;7.97;3.15;;;24.00;68.30;;;;;;6139645;28;81239;-58
2023/08/13 06:02:45;;;;;;;4.95;3.85;;;24.10;69.10;;;;;;6127985;28;81629;-55
2023/08/13 06:05:47;;;;;;;7.25;3.42;;;24.00;70.00;;;;;;6129742;28;80437;-54
2023/08/13 06:08:47;;;;;;;6.85;3.40;;;24.00;70.20;;;;;;6129311;28;80801;-55
2023/08/13 06:11:48;;;;;;;6.38;3.42;;;23.90;70.50;;;;;;6128682;28;80556;-57
2023/08/13 06:14:49;;;;;;;6.20;3.72;;;23.90;70.90;;;;;;6128017;28;80868;-54
2023/08/13 06:17:49;;;;;;;8.52;3.40;;;23.90;70.90;;;;;;6129314;28;81092;-55
2023/08/13 06:20:50;;;;;;;6.63;3.20;;;23.90;70.40;;;;;;6125404;28;80604;-56
2023/08/13 06:23:50;;;;;;;5.45;3.33;;;24.00;70.60;;;;;;6127433;28;80633;-55
2023/08/13 06:26:51;;;;;;;4.47;3.50;;;24.10;70.20;;;;;;6124826;28;80356;-53
2023/08/13 06:29:52;;;;;;;4.32;3.22;;;24.10;70.20;;;;;;6130032;28;82478;-54
2023/08/13 06:32:52;;;;;;;4.38;3.38;;;24.10;70.20;;;;;;6142391;28;80574;-68
2023/08/13 06:35:53;;;;;;;4.97;3.00;;;24.10;70.60;;;;;;6138064;28;81051;-64
2023/08/13 06:38:53;;;;;;;3.75;2.92;;;24.10;68.60;;;;;;6129825;28;80836;-71
2023/08/13 06:41:54;;;;;;;8.05;3.28;;;24.10;68.40;;;;;;6125793;28;82510;-71
2023/08/13 06:45:00;;;;;;;5.30;3.15;;;24.10;68.60;;;;;;6118192;28;82308;-66
2023/08/13 06:48:04;;;;;;;5.97;3.35;;;24.10;68.50;;;;;;6126974;28;81914;-63
2023/08/13 06:51:04;;;;;;;7.95;3.03;;;24.30;68.50;;;;;;6101429;28;82803;-68
2023/08/13 06:54:05;;;;;;;4.35;2.67;;;24.30;68.60;;;;;;6118963;28;81013;-70
2023/08/13 06:57:05;;;;;;;3.10;2.80;;;24.30;68.30;;;;;;6123285;28;81787;-68
2023/08/13 07:00:06;;;;;;;5.03;3.15;;;24.30;68.10;;;;;;6131230;28;81302;-69
2023/08/13 07:03:06;;;;;;;5.13;3.30;;;24.40;67.90;;;;;;6123358;28;81723;-71
2023/08/13 07:06:07;;;;;;;7.63;3.58;;;24.40;67.60;;;;;;6125081;28;81426;-68
2023/08/13 07:09:07;;;;;;;4.40;2.75;;;24.50;67.60;;;;;;6130685;28;83279;-54
2023/08/13 07:12:08;;;;;;;8.68;2.97;;;24.50;67.60;;;;;;6135780;28;81460;-55
2023/08/13 07:15:09;;;;;;;4.25;3.10;;;24.60;67.30;;;;;;6137050;28;81955;-54
2023/08/13 07:18:09;;;;;;;5.22;2.75;;;24.60;67.10;;;;;;6135241;28;81251;-55
2023/08/13 07:21:11;;;;;;;4.93;3.15;;;24.60;67.20;;;;;;6130650;28;80858;-56
2023/08/13 07:24:12;;;;;;;5.35;2.90;;;24.70;67.40;;;;;;6133841;28;81429;-56
2023/08/13 07:27:12;;;;;;;4.50;2.92;;;24.70;67.80;;;;;;6134381;28;81829;-58
2023/08/13 07:30:13;;;;;;;4.78;2.92;;;24.80;67.20;;;;;;6137890;28;82191;-58
2023/08/13 07:33:14;;;;;;;5.57;2.70;;;24.80;66.90;;;;;;6118731;28;81465;-59
2023/08/13 07:36:14;;;;;;;3.97;3.28;;;24.80;67.00;;;;;;6130568;28;80802;-57
2023/08/13 07:39:16;;;;;;;5.18;2.47;;;24.90;66.70;;;;;;6135511;28;81836;-58
2023/08/13 07:42:17;;;;;;;3.50;2.53;;;24.90;65.60;;;;;;6126526;28;80688;-58
2023/08/13 07:45:17;;;;;;;6.63;3.20;;;25.00;65.20;;;;;;6136971;28;80940;-71
2023/08/13 07:48:18;;;;;;;5.55;2.90;;;25.00;64.70;;;;;;6127521;28;80510;-70
2023/08/13 07:51:18;;;;;;;7.60;2.92;;;25.10;64.20;;;;;;6131186;28;80197;-61
2023/08/13 07:54:19;;;;;;;4.85;3.03;;;25.10;64.30;;;;;;6132606;28;80991;-63
2023/08/13 07:57:19;;;;;;;3.58;2.97;;;25.10;64.40;;;;;;6127670;28;83467;-64
2023/08/13 08:00:20;;;;;;;4.93;2.75;;;25.20;64.80;;;;;;6134481;28;80365;-65
2023/08/13 08:03:22;;;;;;;4.43;2.95;;;25.20;64.70;;;;;;6135406;28;80835;-59
2023/08/13 08:06:23;;;;;;;7.30;2.90;;;25.30;64.90;;;;;;6134411;28;80465;-56
2023/08/13 08:09:23;;;;;;;8.48;3.00;;;25.30;65.10;;;;;;6133007;28;80815;-57
2023/08/13 08:12:24;;;;;;;5.30;3.22;;;25.20;65.20;;;;;;6126715;28;81159;-56
2023/08/13 08:15:25;;;;;;;4.95;2.55;;;25.20;65.10;;;;;;6128643;28;80399;-57
2023/08/13 08:18:25;;;;;;;6.15;3.25;;;25.20;65.60;;;;;;6128179;28;81083;-57
2023/08/13 08:21:26;;;;;;;4.30;2.70;;;25.20;64.40;;;;;;6121265;28;86563;-57
2023/08/13 08:24:27;;;;;;;4.97;2.72;;;25.20;64.30;;;;;;6140337;28;81210;-57
2023/08/13 08:27:27;;;;;;;2.97;2.40;;;25.30;63.60;;;;;;6120600;28;80480;-55
2023/08/13 08:30:28;;;;;;;3.92;2.53;;;25.30;62.90;;;;;;6128117;28;80481;-57
2023/08/13 08:33:28;;;;;;;5.40;2.17;;;25.30;63.00;;;;;;6123333;28;80574;-48
2023/08/13 08:36:29;;;;;;;4.38;2.40;;;25.40;63.40;;;;;;6120289;28;81413;-57
2023/08/13 08:39:29;;;;;;;4.47;2.70;;;25.50;62.80;;;;;;6124249;28;80324;-52
2023/08/13 08:42:30;;;;;;;5.07;2.83;;;25.50;62.70;;;;;;6132105;28;81296;-53
2023/08/13 08:45:30;;;;;;;3.88;2.42;;;25.60;61.60;;;;;;6132152;28;81204;-50
2023/08/13 08:48:34;;;;;;;4.15;2.80;;;25.60;61.80;;;;;;6127525;28;80920;-50
2023/08/13 08:51:34;;;;;;;3.65;2.50;;;25.70;61.90;;;;;;6119962;28;80156;-54
2023/08/13 08:54:35;;;;;;;5.72;3.05;;;25.70;62.00;;;;;;6123932;28;81904;-55
2023/08/13 08:57:35;;;;;;;4.22;2.80;;;25.70;62.20;;;;;;6117354;28;80715;-50
2023/08/13 09:00:36;;;;;;;6.15;2.47;;;25.70;62.20;;;;;;6140201;28;80383;-54
2023/08/13 09:03:36;;;;;;;4.25;2.67;;;25.70;62.10;;;;;;6136562;28;81032;-55
2023/08/13 09:06:37;;;;;;;3.65;2.70;;;25.70;61.30;;;;;;6131906;28;80955;-54
2023/08/13 09:09:38;;;;;;;3.75;2.55;;;25.80;61.80;;;;;;6125691;28;80325;-54
2023/08/13 09:12:38;;;;;;;3.28;2.08;;;25.80;61.10;;;;;;6133212;28;80504;-57
2023/08/13 09:15:41;;;;;;;5.55;2.45;;;25.70;61.50;;;;;;6134745;28;80444;-51
2023/08/13 09:18:41;;;;;;;26.02;2.95;;;25.70;61.80;;;;;;6120047;28;81108;-66
2023/08/13 09:21:42;;;;;;;5.63;2.75;;;25.70;62.20;;;;;;6130715;28;80428;-65
2023/08/13 09:24:42;;;;;;;4.70;2.95;;;25.70;62.30;;;;;;6127153;28;80538;-64
2023/08/13 09:27:43;;;;;;;5.72;3.22;;;25.70;62.40;;;;;;6123876;28;81750;-68
2023/08/13 09:30:43;;;;;;;3.20;2.58;;;25.60;62.50;;;;;;6128676;28;80947;-67
2023/08/13 09:33:44;;;;;;;5.05;2.60;;;25.60;62.10;;;;;;6132318;28;80913;-64
2023/08/13 09:36:44;;;;;;;5.85;3.00;;;25.60;62.40;;;;;;6129619;28;80832;-51
2023/08/13 09:39:45;;;;;;;4.05;2.70;;;25.60;62.70;;;;;;6131394;28;80395;-56
2023/08/13 09:42:46;;;;;;;3.05;2.35;;;25.70;62.50;;;;;;6128953;28;87493;-52
2023/08/13 09:45:46;;;;;;;5.57;3.30;;;25.70;62.30;;;;;;6120659;28;81138;-57
2023/08/13 09:48:47;;;;;;;6.07;3.00;;;25.70;62.80;;;;;;6125779;28;81295;-55
2023/08/13 09:51:48;;;;;;;5.32;2.65;;;25.70;62.50;;;;;;6131482;28;80652;-57
2023/08/13 09:54:48;;;;;;;3.70;2.70;;;25.70;63.40;;;;;;6125936;28;80213;-55
2023/08/13 09:57:49;;;;;;;7.57;2.90;;;25.70;63.00;;;;;;6120006;28;83905;-54
2023/08/13 10:00:49;;;;;;;5.13;3.00;;;25.70;62.90;;;;;;6127438;28;79957;-56
2023/08/13 10:03:50;;;;;;;4.45;2.70;;;25.70;63.00;;;;;;6125626;28;80687;-56
2023/08/13 10:06:50;;;;;;;7.13;2.88;;;25.80;62.90;;;;;;6117954;28;80364;-58
2023/08/13 10:09:54;;;;;;;7.47;3.00;;;25.90;63.10;;;;;;6123628;28;82277;-58
2023/08/13 10:12:54;;;;;;;4.22;2.50;;;25.90;63.00;;;;;;6128159;28;80320;-58
2023/08/13 10:15:55;;;;;;;3.65;2.70;;;25.90;62.90;;;;;;6129534;28;80422;-54
2023/08/13 10:18:55;;;;;;;4.82;2.78;;;26.00;63.20;;;;;;6126569;28;80816;-52
2023/08/13 10:21:56;;;;;;;5.07;2.58;;;26.10;62.70;;;;;;6129098;28;81267;-52
2023/08/13 10:24:57;;;;;;;6.63;3.15;;;26.10;62.20;;;;;;6128895;28;81151;-57
2023/08/13 10:27:58;;;;;;;6.32;3.17;;;26.10;62.20;;;;;;6127830;28;80912;-58
2023/08/13 10:30:58;;;;;;;4.68;2.67;;;26.10;62.80;;;;;;6128281;28;80897;-58
2023/08/13 10:33:59;;;;;;;2.72;2.47;;;26.10;62.60;;;;;;6146378;28;81075;-56
2023/08/13 10:36:59;;;;;;;3.55;2.65;;;26.10;62.60;;;;;;6123062;28;80530;-56
2023/08/13 10:40:00;;;;;;;4.78;3.10;;;26.10;62.50;;;;;;6127247;28;81351;-56
2023/08/13 10:43:01;;;;;;;4.65;2.63;;;26.20;61.80;;;;;;6101368;28;81595;-57
2023/08/13 10:46:02;;;;;;;4.47;2.65;;;26.30;62.60;;;;;;6125013;28;82141;-58
2023/08/13 10:49:03;;;;;;;3.33;2.63;;;26.40;62.30;;;;;;6132467;28;81834;-68
2023/08/13 10:52:04;;;;;;;4.47;2.92;;;26.40;62.40;;;;;;6123121;28;81903;-68
2023/08/13 10:55:04;;;;;;;2.53;2.33;;;26.30;62.60;;;;;;6127930;28;81748;-66
2023/08/13 10:58:04;;;;;;;6.13;3.20;;;26.30;62.80;;;;;;6128808;28;81231;-68
2023/08/13 11:01:05;;;;;;;14.45;5.03;;;26.30;63.10;;;;;;6125202;28;81383;-66
2023/08/13 11:04:07;;;;;;;23.77;7.53;;;26.30;63.40;;;;;;6123558;28;86387;-60
2023/08/13 11:07:07;;;;;;;24.50;7.60;;;26.20;65.40;;;;;;6126810;28;82900;-68
2023/08/13 11:10:08;;;;;;;9.93;4.85;;;26.30;65.10;;;;;;6128225;28;81071;-69
2023/08/13 11:13:08;;;;;;;11.13;4.63;;;26.40;63.90;;;;;;6127113;28;80909;-70
2023/08/13 11:16:09;;;;;;;5.18;3.53;;;26.40;63.70;;;;;;6128724;28;83797;-68
2023/08/13 11:19:09;;;;;;;4.95;2.63;;;26.50;62.50;;;;;;6130227;28;83490;-69
2023/08/13 11:22:10;;;;;;;9.63;4.38;;;26.60;62.00;;;;;;6118416;28;81398;-69
2023/08/13 11:25:11;;;;;;;6.72;3.67;;;26.60;62.00;;;;;;6133262;28;81525;-68
2023/08/13 11:28:11;;;;;;;5.57;3.88;;;26.50;62.90;;;;;;6126776;28;81777;-66
2023/08/13 11:31:12;;;;;;;6.60;3.67;;;26.50;63.20;;;;;;6105435;28;81458;-64
2023/08/13 11:34:12;;;;;;;5.68;3.85;;;26.40;63.00;;;;;;6117280;28;81477;-67
2023/08/13 11:37:13;;;;;;;6.00;3.63;;;26.40;63.10;;;;;;6127802;28;80464;-66
2023/08/13 11:40:13;;;;;;;6.82;3.45;;;26.30;63.40;;;;;;6125388;28;81520;-65
2023/08/13 11:43:14;;;;;;;6.90;3.88;;;26.40;63.60;;;;;;6127528;28;80722;-66
2023/08/13 11:46:14;;;;;;;7.22;3.92;;;26.50;62.70;;;;;;6121598;28;80699;-66
2023/08/13 11:49:15;;;;;;;4.53;3.10;;;26.50;62.60;;;;;;6119306;28;80263;-65
2023/08/13 11:52:15;;;;;;;5.15;2.97;;;26.60;62.20;;;;;;6122128;28;81932;-67
2023/08/13 11:55:16;;;;;;;7.97;3.55;;;26.60;61.90;;;;;;6117607;28;81447;-63
2023/08/13 11:58:17;;;;;;;6.40;3.22;;;26.60;62.00;;;;;;6123858;28;80411;-61
2023/08/13 12:01:17;;;;;;;3.08;2.40;;;26.70;61.20;;;;;;6134467;28;80726;-54
2023/08/13 12:04:18;;;;;;;3.85;2.65;;;26.80;60.70;;;;;;6141381;28;80515;-56
2023/08/13 12:07:18;;;;;;;5.47;3.13;;;26.80;60.90;;;;;;6135601;28;81048;-55
2023/08/13 12:10:19;;;;;;;2.65;2.25;;;26.80;60.70;;;;;;6121264;28;80895;-53
2023/08/13 12:13:19;;;;;;;9.07;2.80;;;26.80;60.70;;;;;;6127651;28;80877;-57
2023/08/13 12:16:20;;;;;;;4.82;2.28;;;26.80;59.00;;;;;;6131733;28;80922;-56
2023/08/13 12:19:21;;;;;;;3.53;2.72;;;27.20;58.50;;;;;;6119179;28;80980;-53
2023/08/13 12:22:21;;;;;;;3.20;2.72;;;27.10;59.30;;;;;;6127661;28;81773;-56
2023/08/13 12:25:22;;;;;;;4.57;2.72;;;27.00;59.80;;;;;;6140043;28;80445;-53
2023/08/13 12:28:23;;;;;;;4.55;2.72;;;26.90;60.40;;;;;;6138983;28;80793;-55
2023/08/13 12:31:25;;;;;;;5.45;2.55;;;26.80;60.50;;;;;;6134324;28;80532;-58
2023/08/13 12:34:25;;;;;;;6.70;2.50;;;26.80;60.50;;;;;;6158067;28;80694;-56
2023/08/13 12:37:26;;;;;;;5.47;2.85;;;26.80;59.90;;;;;;6130649;28;83486;-53
2023/08/13 12:40:26;;;;;;;6.60;3.03;;;26.80;60.20;;;;;;6126230;28;81444;-56
2023/08/13 12:43:27;;;;;;;26.25;4.25;;;26.70;60.20;;;;;;6126645;28;81566;-55
2023/08/13 12:46:27;;;;;;;8.13;2.80;;;26.60;60.20;;;;;;6111764;28;80624;-53
2023/08/13 12:49:28;;;;;;;6.95;2.88;;;26.60;60.30;;;;;;6129547;28;80881;-51
2023/08/13 12:52:28;;;;;;;5.18;2.83;;;26.60;60.80;;;;;;6135562;28;82262;-54
2023/08/13 12:55:29;;;;;;;5.50;2.80;;;26.70;60.60;;;;;;6123170;28;83427;-50
2023/08/13 12:58:29;;;;;;;3.28;2.88;;;26.70;60.20;;;;;;6136687;28;80416;-54
2023/08/13 13:01:30;;;;;;;7.03;2.80;;;26.70;60.90;;;;;;6124996;28;81378;-48
2023/08/13 13:04:30;;;;;;;10.52;3.17;;;26.60;60.90;;;;;;6131280;28;81177;-54
2023/08/13 13:07:31;;;;;;;7.28;2.78;;;26.60;60.90;;;;;;6121332;28;81097;-52
2023/08/13 13:10:31;;;;;;;5.75;2.80;;;26.50;61.90;;;;;;6131122;28;81909;-50
2023/08/13 13:13:32;;;;;;;4.97;3.10;;;26.80;63.60;;;;;;6130649;28;80974;-50
2023/08/13 13:16:32;;;;;;;4.03;2.88;;;26.80;63.50;;;;;;6124058;28;82860;-51
2023/08/13 13:19:33;;;;;;;3.38;2.65;;;26.90;62.50;;;;;;6128475;28;84081;-51
2023/08/13 13:22:33;;;;;;;6.57;3.08;;;27.00;61.50;;;;;;6129663;28;81143;-52
2023/08/13 13:25:34;;;;;;;4.38;3.17;;;26.90;61.70;;;;;;6122651;28;83451;-51
2023/08/13 13:28:35;;;;;;;3.58;2.70;;;26.90;61.50;;;;;;6128006;28;80080;-49
2023/08/13 13:31:35;;;;;;;5.03;3.10;;;27.00;60.30;;;;;;6107704;28;84771;-54
2023/08/13 13:34:36;;;;;;;4.90;3.22;;;26.90;61.00;;;;;;6131503;28;80491;-54
2023/08/13 13:37:36;;;;;;;3.47;2.72;;;26.80;61.00;;;;;;6134278;28;81163;-56
2023/08/13 13:40:37;;;;;;;5.43;2.65;;;26.80;61.70;;;;;;6131093;28;80249;-56
2023/08/13 13:43:38;;;;;;;3.15;2.67;;;26.90;61.10;;;;;;6126911;28;80948;-48
2023/08/13 13:46:38;;;;;;;3.28;2.97;;;27.00;60.70;;;;;;6117645;28;80950;-56
2023/08/13 13:49:39;;;;;;;3.28;2.80;;;27.10;60.80;;;;;;6128357;28;80516;-51
2023/08/13 13:52:39;;;;;;;4.20;3.00;;;27.00;60.70;;;;;;6123027;28;81083;-52
2023/08/13 13:55:40;;;;;;;4.07;2.45;;;26.90;61.10;;;;;;6112915;28;80857;-55
2023/08/13 13:58:40;;;;;;;6.60;2.90;;;26.90;61.20;;;;;;6117094;28;81005;-54
2023/08/13 14:01:43;;;;;;;5.78;3.05;;;26.90;61.30;;;;;;6122118;28;81526;-57
2023/08/13 14:04:44;;;;;;;5.43;2.90;;;26.80;61.50;;;;;;6128639;28;80576;-56
2023/08/13 14:07:44;;;;;;;4.18;3.05;;;26.80;61.70;;;;;;6129491;28;81594;-55
2023/08/13 14:10:45;;;;;;;4.45;3.05;;;26.80;61.90;;;;;;6129289;28;80072;-54
2023/08/13 14:13:45;;;;;;;6.15;3.03;;;26.80;62.00;;;;;;6127194;28;80862;-55
2023/08/13 14:16:46;;;;;;;4.22;3.17;;;26.80;62.20;;;;;;6128422;28;80741;-47
2023/08/13 14:19:46;;;;;;;9.52;2.92;;;27.10;61.10;;;;;;6136763;28;80572;-53
2023/08/13 14:22:47;;;;;;;4.40;3.00;;;27.30;59.80;;;;;;6124825;28;81084;-53
2023/08/13 14:25:47;;;;;;;6.20;2.60;;;27.40;59.30;;;;;;6123829;28;80790;-51
2023/08/13 14:28:48;;;;;;;4.47;2.97;;;27.30;59.80;;;;;;6125168;28;80290;-56
2023/08/13 14:31:49;;;;;;;4.53;3.25;;;27.10;60.20;;;;;;6131270;28;81880;-56
2023/08/13 14:34:49;;;;;;;3.90;2.95;;;27.10;60.70;;;;;;6146015;28;80614;-58
2023/08/13 14:37:50;;;;;;;3.50;2.83;;;27.00;61.10;;;;;;6117479;28;80331;-57
2023/08/13 14:40:50;;;;;;;3.10;2.70;;;26.90;61.10;;;;;;6123964;28;81040;-56
2023/08/13 14:43:53;;;;;;;6.78;3.47;;;26.90;61.30;;;;;;6127155;28;80917;-57
2023/08/13 14:46:53;;;;;;;8.02;3.65;;;26.80;61.80;;;;;;6131938;28;80151;-66
2023/08/13 14:49:54;;;;;;;4.07;3.03;;;26.80;61.50;;;;;;6137773;28;80537;-66
2023/08/13 14:52:54;;;;;;;3.63;3.05;;;26.80;61.50;;;;;;6135082;28;80506;-67
2023/08/13 14:55:55;;;;;;;5.80;2.78;;;26.80;62.00;;;;;;6116714;28;80590;-66
2023/08/13 14:58:57;;;;;;;7.45;3.55;;;27.00;62.70;;;;;;6125269;28;83137;-66
2023/08/13 15:01:58;;;;;;;4.75;2.60;;;27.10;62.10;;;;;;6123047;28;81188;-66
2023/08/13 15:04:58;;;;;;;4.55;3.17;;;27.10;61.80;;;;;;6121106;28;83524;-65
2023/08/13 15:07:59;;;;;;;6.13;2.80;;;27.10;61.40;;;;;;6110576;28;80548;-66
2023/08/13 15:10:59;;;;;;;3.05;2.63;;;27.20;61.70;;;;;;6122860;28;81936;-66
2023/08/13 15:14:00;;;;;;;4.38;3.08;;;27.20;61.90;;;;;;6126672;28;89056;-64
2023/08/13 15:17:00;;;;;;;7.65;3.00;;;27.30;61.60;;;;;;6123258;28;81569;-64
2023/08/13 15:20:01;;;;;;;10.48;2.53;;;27.40;60.00;;;;;;6123986;28;80460;-64
2023/08/13 15:23:01;;;;;;;3.53;2.40;;;27.50;59.10;;;;;;6127904;28;80434;-65
2023/08/13 15:26:02;;;;;;;3.20;2.90;;;27.50;58.90;;;;;;6125937;28;80909;-66
2023/08/13 15:29:02;;;;;;;3.53;2.80;;;27.60;59.00;;;;;;6128622;28;80152;-67
2023/08/13 15:32:04;;;;;;;7.43;3.80;;;27.60;59.20;;;;;;6136185;28;80308;-65
2023/08/13 15:35:05;;;;;;;6.43;3.25;;;27.60;59.40;;;;;;6145313;28;81385;-71
2023/08/13 15:38:06;;;;;;;4.68;3.25;;;27.60;58.80;;;;;;6132003;28;80210;-71